createdAt,value
2022-08-03T00:00:50.568Z,8.05
2022-08-03T00:03:20.687Z,7.55
2022-08-03T00:06:03.719Z,6.15
2022-08-03T00:08:35.570Z,3.03
2022-08-03T00:11:10.683Z,2.58
2022-08-03T00:13:40.920Z,3.15
2022-08-03T00:16:11.988Z,2.28
2022-08-03T00:18:42.794Z,2.35
2022-08-03T00:21:13.057Z,1.70
2022-08-03T00:23:52.139Z,1.58
2022-08-03T00:26:23.404Z,2.60
2022-08-03T00:28:54.197Z,1.83
2022-08-03T00:31:40.144Z,1.73
2022-08-03T00:34:14.893Z,1.45
2022-08-03T00:36:44.985Z,1.80
2022-08-03T00:39:15.354Z,1.70
2022-08-03T00:41:45.467Z,1.15
2022-08-03T00:44:15.583Z,1.20
2022-08-03T00:46:45.702Z,1.77
2022-08-03T00:49:15.950Z,1.38
2022-08-03T00:51:46.214Z,1.55
2022-08-03T00:54:17.678Z,1.35
2022-08-03T00:57:00.323Z,1.40
2022-08-03T00:59:31.922Z,1.50
2022-08-03T01:02:02.308Z,1.40
2022-08-03T01:04:32.654Z,1.40
2022-08-03T01:07:14.681Z,1.30
2022-08-03T01:10:17.429Z,1.70
2022-08-03T01:13:59.823Z,1.98
2022-08-03T01:16:15.923Z,1.38
2022-08-03T01:18:46.142Z,1.70
2022-08-03T01:21:17.303Z,1.20
2022-08-03T01:24:06.022Z,1.83
2022-08-03T01:26:41.863Z,1.45
2022-08-03T01:29:37.870Z,1.80
2022-08-03T01:32:59.978Z,1.75
2022-08-03T01:35:09.024Z,1.92
2022-08-03T01:37:50.342Z,1.50
2022-08-03T01:40:20.796Z,3.00
2022-08-03T01:42:50.916Z,2.10
2022-08-03T01:45:21.081Z,2.28
2022-08-03T01:47:51.301Z,1.75
2022-08-03T01:50:21.920Z,2.03
2022-08-03T01:52:52.087Z,1.77
2022-08-03T01:55:22.489Z,1.85
2022-08-03T01:58:04.564Z,2.97
2022-08-03T02:00:40.028Z,2.85
2022-08-03T02:03:10.216Z,2.63
2022-08-03T02:05:40.442Z,2.17
2022-08-03T02:08:10.838Z,6.13
2022-08-03T02:10:40.948Z,13.88
2022-08-03T02:13:11.206Z,4.03
2022-08-03T02:15:41.434Z,3.85
2022-08-03T02:18:12.133Z,3.20
2022-08-03T02:20:42.638Z,3.97
2022-08-03T02:23:13.454Z,4.80
2022-08-03T02:25:56.701Z,7.40
2022-08-03T02:28:34.912Z,5.55
2022-08-03T02:31:05.536Z,8.23
2022-08-03T02:33:36.966Z,5.63
2022-08-03T02:36:07.457Z,5.40
2022-08-03T02:38:38.558Z,4.82
2022-08-03T02:41:09.839Z,4.57
2022-08-03T02:44:06.830Z,4.75
2022-08-03T02:46:31.662Z,5.00
2022-08-03T02:49:50.849Z,3.55
2022-08-03T02:51:54.755Z,4.93
2022-08-03T02:54:26.200Z,4.05
2022-08-03T02:56:56.600Z,4.70
2022-08-03T02:59:26.901Z,6.93
2022-08-03T03:01:57.007Z,3.90
2022-08-03T03:04:32.186Z,3.67
2022-08-03T03:07:04.413Z,4.20
2022-08-03T03:09:41.571Z,3.38
2022-08-03T03:12:14.170Z,4.15
2022-08-03T03:14:44.459Z,4.43
2022-08-03T03:17:14.728Z,3.35
2022-08-03T03:19:46.318Z,4.45
2022-08-03T03:22:16.576Z,3.85
2022-08-03T03:24:47.197Z,20.45
2022-08-03T03:27:17.390Z,29.50
2022-08-03T03:29:47.532Z,4.05
2022-08-03T03:32:17.948Z,4.03
2022-08-03T03:34:48.327Z,4.88
2022-08-03T03:37:18.440Z,4.18
2022-08-03T03:39:48.602Z,4.55
2022-08-03T03:42:18.771Z,5.28
2022-08-03T03:44:48.889Z,5.10
2022-08-03T03:47:18.992Z,4.40
2022-08-03T03:50:02.969Z,4.40
2022-08-03T03:52:33.772Z,8.18
2022-08-03T03:55:03.921Z,7.65
2022-08-03T03:57:34.079Z,5.18
2022-08-03T04:00:04.856Z,4.75
2022-08-03T04:02:34.775Z,5.15
2022-08-03T04:05:23.178Z,5.05
2022-08-03T04:08:16.635Z,6.97
2022-08-03T04:11:00.325Z,5.60
2022-08-03T04:13:35.911Z,5.20
2022-08-03T04:16:06.287Z,7.30
2022-08-03T04:18:36.989Z,5.43
2022-08-03T04:21:08.463Z,5.20
2022-08-03T04:23:39.695Z,7.57
2022-08-03T04:26:11.074Z,7.32
2022-08-03T04:28:42.145Z,9.02
2022-08-03T04:31:12.238Z,5.93
2022-08-03T04:33:42.409Z,6.75
2022-08-03T04:36:13.336Z,7.78
2022-08-03T04:38:49.477Z,6.13
2022-08-03T04:41:19.575Z,6.22
2022-08-03T04:43:49.972Z,5.05
2022-08-03T04:46:20.087Z,5.18
2022-08-03T04:48:50.338Z,7.65
2022-08-03T04:51:20.483Z,8.32
2022-08-03T04:53:50.729Z,6.05
2022-08-03T04:56:20.851Z,6.13
2022-08-03T04:58:51.011Z,5.22
2022-08-03T05:01:21.907Z,5.38
2022-08-03T05:03:52.741Z,5.68
2022-08-03T05:06:25.133Z,4.95
2022-08-03T05:08:56.294Z,5.53
2022-08-03T05:11:27.333Z,4.25
2022-08-03T05:13:57.870Z,3.85
2022-08-03T05:16:28.031Z,4.47
2022-08-03T05:18:58.135Z,4.78
2022-08-03T05:21:41.712Z,3.78
2022-08-03T05:24:19.956Z,3.15
2022-08-03T05:26:50.126Z,3.80
2022-08-03T05:29:20.296Z,4.03
2022-08-03T05:31:50.990Z,3.08
2022-08-03T05:34:21.167Z,3.60
2022-08-03T05:36:51.277Z,3.13
2022-08-03T05:39:21.777Z,3.28
2022-08-03T05:41:52.178Z,3.53
2022-08-03T05:44:22.298Z,3.00
2022-08-03T05:46:52.466Z,3.47
2022-08-03T05:49:22.667Z,3.50
2022-08-03T05:52:00.466Z,4.53
2022-08-03T05:54:56.469Z,4.47
2022-08-03T05:57:28.163Z,3.90
2022-08-03T05:59:58.934Z,5.80
2022-08-03T06:02:29.713Z,3.63
2022-08-03T06:04:59.865Z,4.20
2022-08-03T06:07:30.135Z,3.30
2022-08-03T06:10:35.712Z,3.35
2022-08-03T06:12:52.146Z,3.45
2022-08-03T06:15:23.906Z,3.67
2022-08-03T06:17:55.197Z,3.78
2022-08-03T06:20:27.834Z,3.00
2022-08-03T06:23:00.126Z,2.20
2022-08-03T06:25:32.253Z,2.50
2022-08-03T06:28:02.444Z,2.60
2022-08-03T06:30:32.560Z,2.63
2022-08-03T06:33:03.680Z,2.55
2022-08-03T06:35:38.834Z,2.33
2022-08-03T06:38:12.969Z,2.17
2022-08-03T06:40:43.568Z,1.63
2022-08-03T06:43:16.188Z,2.10
2022-08-03T06:45:47.759Z,1.70
2022-08-03T06:48:18.041Z,2.10
2022-08-03T06:50:48.101Z,0.95
2022-08-03T06:53:21.235Z,1.25
2022-08-03T06:55:54.669Z,1.17
2022-08-03T06:58:25.085Z,1.23
2022-08-03T07:00:55.217Z,2.35
2022-08-03T07:03:25.601Z,0.80
2022-08-03T07:05:55.810Z,0.80
2022-08-03T07:08:34.104Z,1.00
2022-08-03T07:11:04.725Z,0.95
2022-08-03T07:13:35.065Z,1.80
2022-08-03T07:16:05.312Z,1.42
2022-08-03T07:18:35.403Z,1.25
2022-08-03T07:21:05.681Z,1.00
2022-08-03T07:23:35.871Z,2.08
2022-08-03T07:26:06.450Z,0.90
2022-08-03T07:28:36.638Z,0.80
2022-08-03T07:31:06.749Z,1.08
2022-08-03T07:33:37.122Z,1.95
2022-08-03T07:36:07.355Z,1.67
2022-08-03T07:38:38.452Z,1.90
2022-08-03T07:41:08.673Z,0.98
2022-08-03T07:43:39.104Z,1.67
2022-08-03T07:46:09.409Z,1.00
2022-08-03T07:48:39.501Z,0.90
2022-08-03T07:51:09.871Z,1.08
2022-08-03T07:53:47.242Z,1.10
2022-08-03T07:56:18.271Z,1.20
2022-08-03T07:58:48.454Z,1.25
2022-08-03T08:01:20.742Z,1.67
2022-08-03T08:03:52.776Z,1.30
2022-08-03T08:06:23.867Z,1.55
2022-08-03T08:08:54.131Z,2.72
2022-08-03T08:11:24.292Z,1.40
2022-08-03T08:13:54.453Z,1.35
2022-08-03T08:16:24.595Z,1.67
2022-08-03T08:18:54.782Z,1.70
2022-08-03T08:21:25.324Z,1.23
2022-08-03T08:24:18.153Z,1.48
2022-08-03T08:26:49.745Z,1.60
2022-08-03T08:29:24.218Z,1.60
2022-08-03T08:31:54.363Z,1.70
2022-08-03T08:34:24.555Z,2.00
2022-08-03T08:36:54.755Z,1.30
2022-08-03T08:39:25.074Z,2.47
2022-08-03T08:41:55.256Z,1.38
2022-08-03T08:44:25.589Z,5.97
2022-08-03T08:46:56.082Z,2.75
2022-08-03T08:49:26.370Z,0.98
2022-08-03T08:52:00.884Z,1.40
2022-08-03T08:54:32.030Z,1.67
2022-08-03T08:57:12.458Z,2.08
2022-08-03T08:59:58.153Z,1.50
2022-08-03T09:02:28.483Z,4.50
2022-08-03T09:04:58.627Z,2.22
2022-08-03T09:07:28.841Z,2.10
2022-08-03T09:10:08.219Z,2.78
2022-08-03T09:12:42.938Z,3.35
2022-08-03T09:15:19.879Z,2.30
2022-08-03T09:20:22.119Z,2.88
2022-08-03T09:23:18.986Z,3.60
2022-08-03T09:26:00.343Z,3.25
2022-08-03T09:29:01.756Z,3.60
2022-08-03T09:31:35.970Z,2.87
2022-08-03T09:34:09.507Z,2.83
2022-08-03T09:36:40.517Z,3.08
2022-08-03T09:39:14.769Z,2.60
2022-08-03T09:41:45.916Z,2.85
2022-08-03T09:44:25.124Z,2.60
2022-08-03T09:46:57.491Z,3.05
2022-08-03T09:49:27.699Z,2.92
2022-08-03T09:52:31.952Z,2.97
2022-08-03T09:54:53.059Z,3.10
2022-08-03T09:57:24.044Z,2.10
2022-08-03T10:00:02.999Z,3.20
2022-08-03T10:02:42.409Z,3.63
2022-08-03T10:05:19.634Z,3.17
2022-08-03T10:07:51.111Z,4.07
2022-08-03T10:10:31.279Z,3.42
2022-08-03T10:13:05.103Z,3.45
2022-08-03T10:16:22.545Z,3.38
2022-08-03T10:18:25.431Z,3.55
2022-08-03T10:20:55.914Z,3.60
2022-08-03T10:23:27.836Z,3.67
2022-08-03T10:26:01.145Z,3.65
2022-08-03T10:28:34.024Z,4.28
2022-08-03T10:31:04.186Z,4.68
2022-08-03T10:33:49.502Z,4.75
2022-08-03T10:36:25.482Z,5.45
2022-08-03T10:38:56.255Z,4.97
2022-08-03T10:41:27.977Z,5.72
2022-08-03T10:44:05.506Z,5.60
2022-08-03T10:46:35.852Z,4.45
2022-08-03T10:49:06.165Z,5.30
2022-08-03T10:51:36.930Z,4.97
2022-08-03T10:54:07.387Z,5.03
2022-08-03T10:57:13.282Z,5.32
2022-08-03T10:59:49.961Z,5.00
2022-08-03T11:02:20.063Z,4.90
2022-08-03T11:04:50.379Z,4.78
2022-08-03T11:07:24.184Z,6.75
2022-08-03T11:09:57.423Z,5.85
2022-08-03T11:12:30.695Z,6.47
2022-08-03T11:15:09.761Z,7.45
2022-08-03T11:17:46.204Z,8.45
2022-08-03T11:20:52.534Z,7.47
2022-08-03T11:24:05.164Z,7.72
2022-08-03T11:26:32.291Z,7.25
2022-08-03T11:29:21.071Z,6.40
2022-08-03T11:31:51.899Z,7.60
2022-08-03T11:34:22.239Z,5.95
2022-08-03T11:37:10.935Z,6.18
2022-08-03T11:39:47.868Z,6.18
2022-08-03T11:42:28.217Z,6.90
2022-08-03T11:44:59.739Z,8.48
2022-08-03T11:47:30.415Z,6.82
2022-08-03T11:50:03.125Z,8.00
2022-08-03T11:52:40.298Z,7.35
2022-08-03T11:55:14.166Z,7.13
2022-08-03T11:59:17.742Z,7.72
2022-08-03T12:00:34.935Z,10.23
2022-08-03T12:03:06.733Z,7.82
2022-08-03T12:05:51.121Z,7.97
2022-08-03T12:08:35.048Z,7.93
2022-08-03T12:11:07.733Z,7.95
2022-08-03T12:14:43.925Z,9.20
2022-08-03T12:16:32.014Z,8.50
2022-08-03T12:19:05.291Z,7.00
2022-08-03T12:21:36.156Z,7.25
2022-08-03T12:24:06.614Z,25.02
2022-08-03T12:26:58.392Z,16.55
2022-08-03T12:29:29.926Z,15.13
2022-08-03T12:32:00.152Z,14.85
2022-08-03T12:34:49.660Z,12.55
2022-08-03T12:37:29.015Z,10.63
2022-08-03T12:40:09.509Z,9.82
2022-08-03T12:42:41.705Z,9.48
2022-08-03T12:45:28.080Z,10.45
2022-08-03T12:47:58.433Z,12.07
2022-08-03T12:50:28.586Z,11.00
2022-08-03T12:52:59.129Z,10.90
2022-08-03T12:55:57.801Z,11.98
2022-08-03T12:58:35.532Z,13.27
2022-08-03T13:01:09.940Z,13.43
2022-08-03T13:03:45.987Z,14.85
2022-08-03T13:06:21.851Z,14.93
2022-08-03T13:08:53.569Z,13.30
2022-08-03T13:11:53.573Z,12.52
2022-08-03T13:14:20.025Z,10.07
2022-08-03T13:16:51.113Z,10.50
2022-08-03T13:19:21.723Z,9.07
2022-08-03T13:21:53.440Z,9.57
2022-08-03T13:24:34.145Z,7.80
2022-08-03T13:28:00.949Z,8.45
2022-08-03T13:29:57.048Z,7.75
2022-08-03T13:32:27.168Z,7.55
2022-08-03T13:34:57.369Z,3.38
2022-08-03T13:37:28.163Z,2.40
2022-08-03T13:40:02.272Z,4.80
2022-08-03T13:42:33.726Z,5.00
2022-08-03T13:45:04.161Z,1.60
2022-08-03T13:47:34.319Z,1.10
2022-08-03T13:50:04.748Z,1.48
2022-08-03T13:52:35.320Z,1.45
2022-08-03T13:55:06.608Z,1.85
2022-08-03T13:58:19.043Z,1.35
2022-08-03T14:00:29.577Z,1.50
2022-08-03T14:03:06.645Z,2.70
2022-08-03T14:05:42.813Z,2.75
2022-08-03T14:08:13.131Z,2.42
2022-08-03T14:10:44.367Z,2.83
2022-08-03T14:13:17.439Z,5.30
2022-08-03T14:15:50.954Z,8.60
2022-08-03T14:18:29.323Z,3.60
2022-08-03T14:21:07.313Z,3.13
2022-08-03T14:23:38.768Z,4.28
2022-08-03T14:26:08.982Z,2.50
2022-08-03T14:28:39.144Z,3.08
2022-08-03T14:31:15.509Z,2.60
2022-08-03T14:33:59.617Z,3.08
2022-08-03T14:36:32.442Z,3.47
2022-08-03T14:39:02.805Z,3.88
2022-08-03T14:41:33.887Z,3.55
2022-08-03T14:44:04.042Z,5.47
2022-08-03T14:46:34.288Z,4.35
2022-08-03T14:50:35.016Z,2.25
2022-08-03T14:51:56.467Z,2.55
2022-08-03T14:54:26.965Z,2.05
2022-08-03T14:56:57.072Z,1.55
2022-08-03T14:59:29.121Z,1.33
2022-08-03T15:02:23.912Z,1.05
2022-08-03T15:04:54.506Z,1.38
2022-08-03T15:07:24.687Z,1.45
2022-08-03T15:09:54.817Z,2.63
2022-08-03T15:12:24.921Z,1.67
2022-08-03T15:14:54.997Z,1.63
2022-08-03T15:17:25.151Z,1.92
2022-08-03T15:20:03.403Z,1.60
2022-08-03T15:22:45.374Z,1.20
2022-08-03T15:26:28.010Z,1.45
2022-08-03T15:28:05.635Z,1.23
2022-08-03T15:30:38.112Z,1.58
2022-08-03T15:33:08.413Z,1.30
2022-08-03T15:35:38.624Z,1.60
2022-08-03T15:38:09.782Z,1.38
2022-08-03T15:40:40.719Z,1.42
2022-08-03T15:43:11.202Z,1.60
2022-08-03T15:45:41.928Z,1.38
2022-08-03T15:48:12.197Z,1.60
2022-08-03T15:50:42.579Z,0.82
2022-08-03T15:53:14.188Z,0.65
2022-08-03T15:55:44.991Z,0.60
2022-08-03T15:59:09.822Z,0.80
2022-08-03T16:01:06.729Z,0.98
2022-08-03T16:03:37.244Z,1.80
2022-08-03T16:06:07.813Z,1.40
2022-08-03T16:08:37.942Z,1.35
2022-08-03T16:11:08.394Z,1.30
2022-08-03T16:14:12.384Z,1.30
2022-08-03T16:16:29.479Z,1.40
2022-08-03T16:18:59.529Z,1.42
2022-08-03T16:21:38.658Z,1.40
2022-08-03T16:24:25.209Z,1.67
2022-08-03T16:27:00.489Z,1.25
2022-08-03T16:29:31.590Z,1.33
2022-08-03T16:32:09.491Z,1.70
2022-08-03T16:34:40.707Z,1.70
2022-08-03T16:37:35.738Z,1.17
2022-08-03T16:40:01.496Z,0.90
2022-08-03T16:42:32.094Z,1.30
2022-08-03T16:45:03.209Z,1.45
2022-08-03T16:47:33.279Z,1.58
2022-08-03T16:50:08.959Z,1.85
2022-08-03T16:52:43.071Z,0.90
2022-08-03T16:55:42.844Z,0.80
2022-08-03T16:58:08.483Z,1.00
2022-08-03T17:00:44.256Z,1.00
2022-08-03T17:03:20.403Z,0.60
2022-08-03T17:05:52.224Z,1.42
2022-08-03T17:08:27.235Z,0.70
2022-08-03T17:10:57.862Z,0.60
2022-08-03T17:13:39.822Z,1.17
2022-08-03T17:16:15.310Z,0.98
2022-08-03T17:19:02.002Z,0.73
2022-08-03T17:21:33.017Z,0.30
2022-08-03T17:24:12.824Z,0.80
2022-08-03T17:26:44.965Z,0.43
2022-08-03T17:29:16.065Z,0.40
2022-08-03T17:31:48.690Z,1.33
2022-08-03T17:34:20.883Z,1.27
2022-08-03T17:37:05.438Z,0.65
2022-08-03T17:42:30.268Z,0.57
2022-08-03T17:45:15.940Z,0.50
2022-08-03T17:47:57.097Z,1.02
2022-08-03T17:50:35.644Z,0.60
2022-08-03T17:53:15.554Z,0.38
2022-08-03T17:55:59.631Z,0.70
2022-08-03T17:58:41.615Z,0.93
2022-08-03T18:02:03.319Z,0.60
2022-08-03T18:04:30.240Z,0.52
2022-08-03T18:07:11.213Z,0.50
2022-08-03T18:10:06.644Z,0.70
2022-08-03T18:12:33.308Z,0.88
2022-08-03T18:15:07.738Z,1.00
2022-08-03T18:17:55.965Z,0.75
2022-08-03T18:20:34.747Z,0.95
2022-08-03T18:23:11.523Z,0.70
2022-08-03T18:25:59.103Z,0.95
2022-08-03T18:28:30.560Z,0.60
2022-08-03T18:31:00.654Z,0.50
2022-08-03T18:34:19.729Z,0.82
2022-08-03T18:36:29.930Z,0.80
2022-08-03T18:39:02.481Z,0.90
2022-08-03T18:41:35.062Z,1.08
2022-08-03T18:44:08.449Z,1.00
2022-08-03T18:50:21.369Z,0.80
2022-08-03T18:52:57.685Z,1.55
2022-08-03T18:55:33.608Z,0.60
2022-08-03T18:58:08.173Z,0.73
2022-08-03T19:01:04.460Z,0.90
2022-08-03T19:03:47.025Z,0.60
2022-08-03T19:06:21.180Z,0.70
2022-08-03T19:08:52.558Z,0.60
2022-08-03T19:11:28.413Z,0.70
2022-08-03T19:14:00.704Z,0.73
2022-08-03T19:16:39.705Z,0.80
2022-08-03T19:19:14.447Z,0.90
2022-08-03T19:21:45.413Z,0.80
2022-08-03T19:24:15.759Z,0.80
2022-08-03T19:26:48.533Z,0.80
2022-08-03T19:29:23.075Z,1.00
2022-08-03T19:31:59.160Z,0.98
2022-08-03T19:34:34.180Z,0.70
2022-08-03T19:37:07.777Z,0.90
2022-08-03T19:39:45.177Z,1.15
2022-08-03T19:42:29.950Z,0.95
2022-08-03T19:45:11.320Z,1.00
2022-08-03T19:48:01.297Z,1.02
2022-08-03T19:50:32.009Z,1.15
2022-08-03T19:53:03.914Z,1.00
2022-08-03T19:55:35.257Z,0.95
2022-08-03T19:58:08.659Z,0.70
2022-08-03T20:00:55.514Z,0.80
2022-08-03T20:03:29.030Z,1.08
2022-08-03T20:06:16.875Z,0.70
2022-08-03T20:08:48.221Z,0.77
2022-08-03T20:11:28.477Z,1.00
2022-08-03T20:13:59.522Z,0.90
2022-08-03T20:16:29.750Z,0.80
2022-08-03T20:19:00.290Z,0.85
2022-08-03T20:21:30.415Z,0.93
2022-08-03T20:24:03.101Z,1.20
2022-08-03T20:26:54.392Z,1.10
2022-08-03T20:30:04.955Z,0.80
2022-08-03T20:32:24.669Z,1.20
2022-08-03T20:34:55.447Z,1.15
2022-08-03T20:37:25.740Z,1.17
2022-08-03T20:39:56.248Z,1.08
2022-08-03T20:42:26.684Z,1.38
2022-08-03T20:45:05.299Z,1.30
2022-08-03T20:47:41.612Z,1.33
2022-08-03T20:50:23.290Z,1.20
2022-08-03T20:52:53.708Z,1.30
2022-08-03T20:55:47.710Z,1.00
2022-08-03T20:58:13.902Z,0.98
2022-08-03T21:00:44.988Z,1.13
2022-08-03T21:03:15.961Z,1.52
2022-08-03T21:05:51.789Z,1.30
2022-08-03T21:08:24.389Z,1.25
2022-08-03T21:10:54.928Z,1.20
2022-08-03T21:13:09.131Z,0.90
2022-08-03T21:13:26.850Z,1.38
2022-08-03T21:16:14.309Z,1.35
2022-08-03T21:18:48.429Z,1.70
2022-08-03T21:21:20.024Z,1.70
2022-08-03T21:23:54.466Z,1.63
2022-08-03T21:26:26.145Z,1.83
2022-08-03T21:28:57.432Z,2.15
2022-08-03T21:31:28.290Z,2.38
2022-08-03T21:33:59.722Z,2.25
2022-08-03T21:36:30.397Z,2.10
2022-08-03T21:39:01.610Z,2.40
2022-08-03T21:41:32.636Z,2.75
2022-08-03T21:44:03.244Z,3.20
2022-08-03T21:46:37.235Z,2.83
2022-08-03T21:50:04.559Z,3.05
2022-08-03T21:52:01.711Z,4.13
2022-08-03T21:54:35.855Z,4.15
2022-08-03T21:57:07.223Z,4.22
2022-08-03T21:59:41.564Z,4.10
2022-08-03T22:02:24.118Z,4.30
2022-08-03T22:04:57.215Z,3.65
2022-08-03T22:07:28.639Z,4.05
2022-08-03T22:09:59.754Z,4.05
2022-08-03T22:12:30.708Z,4.32
2022-08-03T22:15:02.385Z,4.50
2022-08-03T22:17:55.147Z,4.43
2022-08-03T22:20:25.162Z,4.72
2022-08-03T22:22:56.791Z,4.45
2022-08-03T22:25:30.883Z,5.30
2022-08-03T22:28:06.006Z,5.30
2022-08-03T22:30:36.280Z,4.40
2022-08-03T22:33:10.961Z,5.28
2022-08-03T22:35:47.157Z,5.30
2022-08-03T22:38:18.927Z,5.13
2022-08-03T22:40:50.148Z,4.97
2022-08-03T22:43:23.920Z,4.80
2022-08-03T22:46:09.888Z,5.07
2022-08-03T22:48:43.494Z,5.88
2022-08-03T22:51:13.524Z,4.85
2022-08-03T22:53:43.561Z,4.28
2022-08-03T22:56:13.661Z,4.18
2022-08-03T22:58:43.679Z,4.95
2022-08-03T23:01:14.143Z,4.60
2022-08-03T23:04:00.176Z,4.38
2022-08-03T23:06:36.747Z,4.70
2022-08-03T23:09:08.086Z,4.82
2022-08-03T23:11:42.878Z,4.57
2022-08-03T23:14:17.687Z,4.60
2022-08-03T23:16:48.210Z,4.70
2022-08-03T23:19:25.561Z,3.90
2022-08-03T23:22:02.538Z,4.28
2022-08-03T23:24:37.543Z,4.18
2022-08-03T23:27:08.553Z,4.22
2022-08-03T23:29:39.022Z,3.72
2022-08-03T23:32:09.493Z,4.28
2022-08-03T23:34:59.229Z,3.22
2022-08-03T23:37:29.238Z,4.05
2022-08-03T23:39:59.447Z,3.78
2022-08-03T23:42:29.803Z,4.28
2022-08-03T23:45:05.723Z,4.50
2022-08-03T23:47:46.910Z,4.78
2022-08-03T23:50:17.646Z,4.18
2022-08-03T23:52:56.957Z,5.13
2022-08-03T23:55:33.133Z,4.70
2022-08-03T23:58:10.690Z,4.60
